Time;durP1;ratioP1;P1;durP2;ratioP2;P2;SDS_P1;SDS_P2;PMS_P1;PMS_P2;Temp;Humidity;BMP_temperature;BMP_pressure;BME280_temperature;BME280_humidity;BME280_pressure;Samples;Min_cycle;Max_cycle;Signal;HPM_P1;HPM_P2
2022/02/18 00:00:25;;;;;;;17.35;2.65;;;;;;;9.00;55.54;99844.66;5107938;28;20019;-68
2022/02/18 00:02:51;;;;;;;7.82;2.53;;;;;;;8.91;56.34;99853.47;5106638;28;20108;-67
2022/02/18 00:05:17;;;;;;;5.70;2.42;;;;;;;8.90;56.05;99849.13;5108498;28;20060;-68
2022/02/18 00:07:42;;;;;;;9.85;1.58;;;;;;;8.87;56.51;99854.72;5108177;28;20031;-68
2022/02/18 00:10:08;;;;;;;6.15;1.45;;;;;;;8.85;56.82;99862.03;5108081;28;20497;-69
2022/02/18 00:12:33;;;;;;;7.85;1.40;;;;;;;8.98;56.67;99868.00;5108311;28;20038;-68
2022/02/18 00:14:59;;;;;;;7.03;2.13;;;;;;;8.84;56.85;99873.72;5108538;28;20023;-68
2022/02/18 00:17:24;;;;;;;8.27;1.65;;;;;;;8.79;57.68;99878.59;5108272;28;20114;-68
2022/02/18 00:19:50;;;;;;;4.70;1.85;;;;;;;8.83;57.13;99869.34;5108130;28;20051;-67
2022/02/18 00:22:15;;;;;;;6.03;1.73;;;;;;;8.80;57.90;99886.50;5109453;28;20551;-66
2022/02/18 00:24:41;;;;;;;5.00;1.48;;;;;;;8.83;58.12;99883.56;5108774;28;20052;-68
2022/02/18 00:27:06;;;;;;;2.88;1.05;;;;;;;8.72;58.21;99889.00;5109241;28;20039;-68
2022/02/18 00:29:32;;;;;;;4.32;1.38;;;;;;;8.90;58.39;99895.41;5109167;28;20054;-68
2022/02/18 00:31:57;;;;;;;7.07;1.92;;;;;;;8.77;58.31;99907.31;5109168;28;20155;-69
2022/02/18 00:34:23;;;;;;;9.32;1.85;;;;;;;8.77;58.95;99926.03;5109596;28;20031;-68
2022/02/18 00:36:48;;;;;;;5.35;1.30;;;;;;;8.73;58.62;99913.91;5109615;28;20020;-68
2022/02/18 00:39:14;;;;;;;11.82;1.70;;;;;;;8.81;58.70;99920.25;5107987;28;20036;-67
2022/02/18 00:41:40;;;;;;;10.23;1.45;;;;;;;8.74;58.75;99945.84;5109752;28;20023;-68
2022/02/18 00:44:05;;;;;;;8.18;2.05;;;;;;;8.68;59.60;99940.19;5108646;28;20049;-67
2022/02/18 00:46:31;;;;;;;5.93;1.88;;;;;;;8.65;59.42;99948.47;5109287;28;20026;-68
2022/02/18 00:48:56;;;;;;;6.60;1.60;;;;;;;8.58;59.81;99926.75;5109863;28;20094;-76
2022/02/18 00:51:22;;;;;;;7.63;1.40;;;;;;;8.52;59.90;99945.16;5111258;28;20080;-77
2022/02/18 00:53:48;;;;;;;6.57;1.95;;;;;;;8.61;59.91;99963.09;5111655;28;20019;-78
2022/02/18 00:56:14;;;;;;;10.88;1.95;;;;;;;8.74;59.32;99961.06;5114287;28;20445;-77
2022/02/18 00:58:40;;;;;;;12.07;2.13;;;;;;;8.50;59.66;99937.28;5115025;28;20023;-77
2022/02/18 01:01:08;;;;;;;8.32;2.08;;;;;;;8.52;59.84;99945.97;5115027;28;20031;-76
2022/02/18 01:03:34;;;;;;;4.65;1.60;;;;;;;8.58;59.69;99949.97;5114015;28;20031;-77
2022/02/18 01:05:59;;;;;;;9.07;2.35;;;;;;;8.55;59.77;99944.91;5113200;28;20030;-76
2022/02/18 01:08:25;;;;;;;8.93;1.83;;;;;;;8.49;59.28;99940.94;5113873;28;20389;-76
2022/02/18 01:10:51;;;;;;;6.80;1.45;;;;;;;8.61;59.30;99953.22;5116393;28;20046;-77
2022/02/18 01:13:16;;;;;;;10.13;2.22;;;;;;;8.60;59.10;99951.53;5117415;28;20027;-77
2022/02/18 01:15:42;;;;;;;5.70;1.63;;;;;;;8.56;59.27;99960.81;5115580;28;20527;-76
2022/02/18 01:18:07;;;;;;;8.68;1.70;;;;;;;8.59;58.50;99949.00;5115001;28;20538;-76
2022/02/18 01:20:33;;;;;;;9.13;2.10;;;;;;;8.58;58.76;99956.16;5115821;28;20019;-75
2022/02/18 01:22:58;;;;;;;10.73;2.38;;;;;;;8.71;58.19;99962.16;5115470;28;20559;-68
2022/02/18 01:25:24;;;;;;;7.53;1.70;;;;;;;8.56;58.56;99963.47;5112639;28;20028;-68
2022/02/18 01:27:55;;;;;;;10.48;2.03;;;;;;;8.41;59.03;99956.75;5112920;28;20841;-69
2022/02/18 01:30:23;;;;;;;5.88;1.80;;;;;;;8.49;58.41;99943.59;5112718;28;20028;-67
2022/02/18 01:32:48;;;;;;;4.63;1.50;;;;;;;8.55;57.83;99951.06;5112319;28;20595;-68
2022/02/18 01:35:15;;;;;;;3.72;1.55;;;;;;;8.57;57.95;99956.28;5113157;28;20121;-67
2022/02/18 01:37:41;;;;;;;5.20;1.60;;;;;;;8.65;57.58;99968.00;5112249;28;20027;-67
2022/02/18 01:40:07;;;;;;;6.32;1.77;;;;;;;8.58;58.02;99974.03;5112127;28;20026;-67
2022/02/18 01:42:33;;;;;;;6.85;1.92;;;;;;;8.52;57.94;99966.53;5111425;28;20144;-69
2022/02/18 01:44:58;;;;;;;7.90;1.50;;;;;;;8.54;57.66;99980.59;5111781;27;20054;-69
2022/02/18 01:47:24;;;;;;;7.85;2.03;;;;;;;8.44;57.98;99983.22;5110622;28;20030;-68
2022/02/18 01:49:58;;;;;;;5.80;1.48;;;;;;;8.49;57.72;99985.50;5111988;27;20030;-68
2022/02/18 01:52:29;;;;;;;6.43;2.17;;;;;;;8.36;57.65;99991.03;5112140;28;20114;-67
2022/02/18 01:54:55;;;;;;;7.03;1.85;;;;;;;8.40;57.38;99989.81;5111671;27;20053;-68
2022/02/18 01:57:20;;;;;;;7.57;2.35;;;;;;;8.30;57.38;99982.69;5111454;27;20085;-68
2022/02/18 01:59:46;;;;;;;8.43;2.50;;;;;;;8.28;57.23;99969.44;5111274;28;20474;-68
2022/02/18 02:02:11;;;;;;;7.07;1.67;;;;;;;8.37;56.47;99968.69;5110149;28;20031;-68
2022/02/18 02:04:37;;;;;;;5.30;2.05;;;;;;;8.26;56.56;99973.22;5111621;28;20071;-68
2022/02/18 02:07:05;;;;;;;8.60;2.30;;;;;;;8.39;55.95;99984.59;5110621;28;20027;-68
2022/02/18 02:09:33;;;;;;;6.20;2.10;;;;;;;8.39;56.23;99996.09;5111582;28;20020;-69
2022/02/18 02:11:58;;;;;;;10.43;2.05;;;;;;;8.42;56.38;99995.03;5111815;28;20039;-68
2022/02/18 02:14:24;;;;;;;7.82;1.60;;;;;;;8.35;56.19;99994.66;5110806;28;20027;-68
2022/02/18 02:16:49;;;;;;;7.00;2.00;;;;;;;8.34;56.36;100000.16;5110746;28;20379;-68
2022/02/18 02:19:15;;;;;;;7.28;1.70;;;;;;;8.31;56.01;100003.94;5110687;28;20502;-68
2022/02/18 02:21:48;;;;;;;8.13;1.95;;;;;;;8.28;56.47;99996.16;5110834;28;20026;-68
2022/02/18 02:24:14;;;;;;;9.88;2.45;;;;;;;8.38;56.17;99997.09;5108284;28;20055;-67
2022/02/18 02:26:40;;;;;;;8.13;2.47;;;;;;;8.28;56.34;99995.31;5108763;28;20100;-67
2022/02/18 02:29:05;;;;;;;6.95;2.15;;;;;;;8.07;57.02;99978.38;5110103;28;20031;-67
2022/02/18 02:31:31;;;;;;;6.38;1.88;;;;;;;8.28;56.87;99995.31;5107662;28;20039;-68
2022/02/18 02:33:56;;;;;;;7.65;1.95;;;;;;;8.20;57.05;100001.28;5109474;28;20055;-68
2022/02/18 02:36:22;;;;;;;14.88;2.55;;;;;;;8.16;57.00;100010.50;5110705;28;20383;-68
2022/02/18 02:38:48;;;;;;;7.53;1.50;;;;;;;8.19;56.53;99988.06;5111175;28;20498;-75
2022/02/18 02:41:15;;;;;;;11.95;1.95;;;;;;;8.23;57.08;100016.22;5113234;28;20020;-75
2022/02/18 02:43:40;;;;;;;9.20;2.40;;;;;;;8.20;57.12;100024.47;5111737;28;20419;-76
2022/02/18 02:46:06;;;;;;;7.70;1.70;;;;;;;8.06;57.35;100014.06;5112473;28;20023;-76
2022/02/18 02:48:31;;;;;;;6.80;1.80;;;;;;;8.08;57.62;100037.00;5111416;28;20027;-77
2022/02/18 02:50:57;;;;;;;11.05;1.65;;;;;;;8.01;57.60;100037.63;5112579;28;20038;-76
2022/02/18 02:53:22;;;;;;;12.27;2.20;;;;;;;7.99;58.07;100045.75;5112833;28;20020;-77
2022/02/18 02:55:47;;;;;;;7.25;1.50;;;;;;;7.93;58.08;100037.41;5111678;28;20023;-76
2022/02/18 02:58:13;;;;;;;8.75;1.60;;;;;;;8.01;58.38;100049.16;5112657;28;20427;-77
2022/02/18 03:00:38;;;;;;;6.90;1.77;;;;;;;8.01;58.63;100056.31;5112275;28;20027;-77
2022/02/18 03:03:04;;;;;;;9.43;1.85;;;;;;;7.93;58.23;100048.94;5113444;28;20040;-77
2022/02/18 03:05:29;;;;;;;5.13;1.60;;;;;;;7.93;58.53;100056.13;5111240;28;20088;-77
2022/02/18 03:07:55;;;;;;;8.98;1.90;;;;;;;7.84;58.63;100062.19;5113063;28;20077;-77
2022/02/18 03:10:20;;;;;;;5.72;1.35;;;;;;;7.80;59.32;100068.75;5113207;28;20467;-77
2022/02/18 03:12:46;;;;;;;8.98;1.98;;;;;;;7.80;59.65;100080.25;5113756;28;20403;-77
2022/02/18 03:15:11;;;;;;;6.63;1.83;;;;;;;7.78;59.41;100086.69;5112659;28;20035;-77
2022/02/18 03:17:37;;;;;;;5.25;1.58;;;;;;;7.64;60.26;100082.44;5112404;28;20024;-68
2022/02/18 03:20:04;;;;;;;5.18;1.65;;;;;;;7.64;60.80;100100.31;5108748;28;20024;-68
2022/02/18 03:22:29;;;;;;;9.73;1.83;;;;;;;7.64;60.13;100113.66;5108785;28;20031;-68
2022/02/18 03:24:55;;;;;;;7.82;1.80;;;;;;;7.64;60.94;100124.31;5109030;28;20024;-68
2022/02/18 03:27:20;;;;;;;11.82;2.05;;;;;;;7.54;61.16;100116.19;5109440;27;20023;-68
2022/02/18 03:29:46;;;;;;;13.25;1.88;;;;;;;7.62;60.83;100126.25;5109824;28;20451;-67
2022/02/18 03:32:11;;;;;;;11.85;2.38;;;;;;;7.55;61.38;100130.38;5109509;28;20161;-67
2022/02/18 03:34:37;;;;;;;7.65;1.88;;;;;;;7.49;61.40;100134.38;5108041;28;20036;-67
2022/02/18 03:37:03;;;;;;;9.75;2.05;;;;;;;7.53;61.92;100135.84;5109237;28;20054;-68
2022/02/18 03:39:29;;;;;;;7.50;2.22;;;;;;;7.43;61.87;100136.66;5109180;28;20066;-67
2022/02/18 03:41:54;;;;;;;6.80;2.08;;;;;;;7.46;61.83;100141.75;5109741;28;20063;-67
2022/02/18 03:44:20;;;;;;;7.00;1.75;;;;;;;7.39;62.29;100144.06;5108840;28;20056;-68
2022/02/18 03:46:45;;;;;;;10.90;2.30;;;;;;;7.41;62.67;100135.94;5109143;28;20067;-67
2022/02/18 03:49:10;;;;;;;6.47;1.65;;;;;;;7.43;62.44;100136.66;5109304;28;20023;-67
2022/02/18 03:51:36;;;;;;;8.40;1.80;;;;;;;7.42;62.87;100148.31;5109095;28;20470;-68
2022/02/18 03:54:01;;;;;;;7.75;1.67;;;;;;;7.30;62.65;100150.13;5111647;28;20034;-77
2022/02/18 03:56:27;;;;;;;9.82;1.50;;;;;;;7.20;63.37;100156.25;5111196;28;20019;-77
2022/02/18 03:58:52;;;;;;;6.57;2.55;;;;;;;7.15;63.32;100161.94;5112414;28;20027;-76
2022/02/18 04:01:18;;;;;;;7.28;1.38;;;;;;;7.00;64.00;100163.13;5111875;28;20513;-76
2022/02/18 04:03:43;;;;;;;7.80;1.83;;;;;;;7.03;63.91;100186.03;5112634;28;20032;-77
2022/02/18 04:06:12;;;;;;;5.32;1.60;;;;;;;6.98;64.32;100179.25;5111478;28;20027;-77
2022/02/18 04:08:38;;;;;;;4.20;1.50;;;;;;;6.92;64.23;100177.03;5112368;28;20027;-79
2022/02/18 04:11:03;;;;;;;7.68;2.05;;;;;;;6.82;64.53;100188.50;5111713;28;20027;-77
2022/02/18 04:13:29;;;;;;;5.85;1.70;;;;;;;6.75;65.33;100193.41;5112087;28;20028;-78
2022/02/18 04:15:54;;;;;;;8.85;1.63;;;;;;;6.65;65.79;100194.22;5108936;28;20093;-68
2022/02/18 04:18:20;;;;;;;6.78;1.65;;;;;;;6.58;65.80;100190.31;5108795;28;20106;-68
2022/02/18 04:20:45;;;;;;;12.85;2.15;;;;;;;6.43;66.26;100176.31;5108693;28;20099;-67
2022/02/18 04:23:11;;;;;;;10.00;2.22;;;;;;;6.73;65.57;100203.34;5107838;28;20039;-76
2022/02/18 04:25:36;;;;;;;6.18;1.92;;;;;;;6.64;66.42;100197.84;5111430;28;20023;-76
2022/02/18 04:28:05;;;;;;;7.28;1.52;;;;;;;6.67;65.91;100190.47;5111230;28;20028;-77
2022/02/18 04:30:31;;;;;;;8.32;1.50;;;;;;;6.60;66.04;100188.38;5112899;28;20024;-77
2022/02/18 04:32:56;;;;;;;6.45;2.00;;;;;;;6.56;65.83;100193.09;5115002;28;20035;-77
2022/02/18 04:35:22;;;;;;;7.43;2.53;;;;;;;6.53;66.59;100192.44;5116246;28;20028;-77
2022/02/18 04:37:48;;;;;;;9.13;3.92;;;;;;;6.42;66.37;100179.09;5116692;28;20096;-77
2022/02/18 04:40:15;;;;;;;13.98;4.00;;;;;;;6.44;66.91;100190.47;5116399;28;20062;-76
2022/02/18 04:42:41;;;;;;;13.13;3.88;;;;;;;6.46;66.13;100194.72;5115594;28;20062;-76
2022/02/18 04:45:07;;;;;;;10.05;4.03;;;;;;;6.46;66.29;100205.38;5115900;28;20183;-76
2022/02/18 04:47:33;;;;;;;8.50;2.63;;;;;;;6.43;66.45;100200.28;5115944;28;20506;-77
2022/02/18 04:49:58;;;;;;;7.28;1.70;;;;;;;6.44;65.83;100212.63;5117335;28;20031;-77
2022/02/18 04:52:23;;;;;;;5.95;1.73;;;;;;;6.33;66.70;100225.88;5116192;28;20042;-77
2022/02/18 04:54:49;;;;;;;12.55;2.92;;;;;;;6.27;66.96;100236.09;5115164;28;20032;-77
2022/02/18 04:57:14;;;;;;;8.90;2.45;;;;;;;6.14;66.99;100232.63;5116504;28;21010;-75
2022/02/18 04:59:40;;;;;;;10.57;2.25;;;;;;;6.19;67.21;100244.63;5116244;28;20051;-76
2022/02/18 05:02:06;;;;;;;6.60;2.25;;;;;;;6.09;67.47;100229.41;5114315;28;20028;-76
2022/02/18 05:04:32;;;;;;;6.95;2.53;;;;;;;6.08;67.84;100246.34;5111481;28;20027;-77
2022/02/18 05:06:57;;;;;;;8.95;2.60;;;;;;;6.04;68.44;100251.06;5116393;28;20109;-76
2022/02/18 05:09:23;;;;;;;7.63;2.50;;;;;;;5.97;68.26;100243.59;5115554;28;20027;-76
2022/02/18 05:11:49;;;;;;;6.63;1.98;;;;;;;6.02;68.19;100268.09;5114753;28;20024;-76
2022/02/18 05:14:16;;;;;;;7.18;2.10;;;;;;;6.01;68.75;100255.75;5114693;27;20375;-76
2022/02/18 05:16:41;;;;;;;10.55;2.28;;;;;;;5.99;68.28;100261.16;5114488;28;20019;-76
2022/02/18 05:19:09;;;;;;;9.20;2.30;;;;;;;5.94;68.55;100255.31;5114358;28;20032;-77
2022/02/18 05:21:38;;;;;;;9.15;2.47;;;;;;;5.86;68.63;100252.34;5114176;28;20028;-76
2022/02/18 05:24:08;;;;;;;8.18;2.35;;;;;;;5.88;68.44;100260.22;5113875;27;20025;-75
2022/02/18 05:26:34;;;;;;;8.02;2.22;;;;;;;5.86;69.17;100249.69;5113852;28;20028;-76
2022/02/18 05:29:00;;;;;;;11.00;2.38;;;;;;;5.80;69.02;100242.09;5113636;28;20035;-76
2022/02/18 05:31:25;;;;;;;9.07;2.55;;;;;;;5.81;69.21;100261.56;5114254;28;20387;-76
2022/02/18 05:33:51;;;;;;;9.25;2.60;;;;;;;5.72;69.41;100255.06;5114551;28;20032;-76
2022/02/18 05:36:17;;;;;;;10.63;2.90;;;;;;;5.75;69.32;100260.19;5113792;28;20028;-76
2022/02/18 05:38:43;;;;;;;9.10;2.53;;;;;;;5.74;69.40;100262.97;5111131;28;20016;-76
2022/02/18 05:41:12;;;;;;;7.47;2.78;;;;;;;5.77;68.80;100268.91;5111137;28;20039;-68
2022/02/18 05:43:37;;;;;;;9.45;2.88;;;;;;;5.75;69.53;100270.84;5111789;28;20506;-69
2022/02/18 05:46:03;;;;;;;13.02;2.78;;;;;;;5.83;69.39;100265.84;5111417;28;20022;-68
2022/02/18 05:48:28;;;;;;;11.27;3.00;;;;;;;5.78;69.68;100262.63;5109644;28;20047;-69
2022/02/18 05:51:01;;;;;;;13.00;2.80;;;;;;;5.75;69.49;100267.31;5111804;27;20024;-69
2022/02/18 05:53:27;;;;;;;7.55;2.22;;;;;;;5.77;70.31;100260.91;5110944;28;20027;-67
2022/02/18 05:55:53;;;;;;;8.63;2.90;;;;;;;5.69;70.05;100265.94;5111452;28;20038;-67
2022/02/18 05:58:18;;;;;;;10.63;3.13;;;;;;;5.73;70.61;100283.38;5110653;28;20039;-68
2022/02/18 06:00:44;;;;;;;11.90;2.60;;;;;;;5.76;70.25;100277.84;5111406;28;20028;-67
2022/02/18 06:03:09;;;;;;;8.57;2.88;;;;;;;5.71;70.56;100268.50;5111031;28;20024;-68
2022/02/18 06:05:35;;;;;;;14.10;3.65;;;;;;;5.78;70.86;100273.28;5109921;28;20063;-68
2022/02/18 06:08:00;;;;;;;7.13;2.63;;;;;;;5.76;70.73;100291.16;5109442;27;20027;-68
2022/02/18 06:10:26;;;;;;;9.63;2.95;;;;;;;5.67;71.16;100273.16;5109929;27;20423;-68
2022/02/18 06:12:51;;;;;;;8.68;2.97;;;;;;;5.74;71.40;100298.38;5109843;27;20023;-68
2022/02/18 06:15:17;;;;;;;15.90;3.83;;;;;;;5.74;71.45;100289.56;5109674;28;20043;-67
2022/02/18 06:17:43;;;;;;;10.07;3.72;;;;;;;5.76;71.74;100292.94;5109796;28;20406;-67
2022/02/18 06:20:09;;;;;;;9.52;2.45;;;;;;;5.73;71.97;100290.50;5107945;28;20142;-68
2022/02/18 06:22:38;;;;;;;11.75;4.30;;;;;;;5.79;71.88;100296.28;5108918;28;20448;-67
2022/02/18 06:25:05;;;;;;;12.70;4.22;;;;;;;5.84;72.01;100304.81;5109439;28;20042;-67
2022/02/18 06:27:30;;;;;;;12.95;4.72;;;;;;;5.75;72.18;100280.63;5109835;28;20509;-68
2022/02/18 06:29:56;;;;;;;16.50;4.30;;;;;;;5.82;72.36;100293.44;5109507;28;20020;-67
2022/02/18 06:32:21;;;;;;;11.73;4.20;;;;;;;5.90;72.46;100301.72;5109066;28;20051;-68
2022/02/18 06:34:47;;;;;;;14.25;4.30;;;;;;;5.94;72.53;100300.53;5109355;28;20048;-68
2022/02/18 06:37:12;;;;;;;9.52;4.35;;;;;;;5.90;72.64;100291.09;5108911;28;20028;-67
2022/02/18 06:39:38;;;;;;;20.45;6.55;;;;;;;6.00;72.65;100302.78;5109124;28;20039;-65
2022/02/18 06:42:04;;;;;;;12.00;4.63;;;;;;;6.05;73.08;100300.69;5109076;28;20043;-68
2022/02/18 06:44:29;;;;;;;15.68;5.28;;;;;;;6.06;72.86;100288.22;5108975;28;20055;-68
2022/02/18 06:46:56;;;;;;;10.65;4.20;;;;;;;6.23;73.31;100312.69;5109411;27;20515;-67
2022/02/18 06:49:21;;;;;;;13.13;3.78;;;;;;;6.30;73.48;100307.78;5109168;28;20105;-68
2022/02/18 06:51:48;;;;;;;17.55;3.80;;;;;;;6.29;73.64;100309.59;5108634;28;20062;-67
2022/02/18 06:54:14;;;;;;;11.90;3.50;;;;;;;6.29;74.06;100314.91;5108664;28;20023;-68
2022/02/18 06:56:39;;;;;;;13.18;3.15;;;;;;;6.34;74.72;100317.25;5110090;28;20023;-67
2022/02/18 06:59:04;;;;;;;9.10;3.00;;;;;;;6.49;73.95;100321.53;5108406;28;20035;-68
2022/02/18 07:01:30;;;;;;;9.65;2.70;;;;;;;6.60;74.47;100330.44;5109815;28;20046;-68
2022/02/18 07:03:56;;;;;;;9.52;2.92;;;;;;;6.63;75.02;100322.25;5109882;28;20024;-67
2022/02/18 07:06:21;;;;;;;11.70;2.78;;;;;;;6.67;74.81;100323.72;5109227;28;20023;-67
2022/02/18 07:08:47;;;;;;;8.70;2.53;;;;;;;6.81;74.25;100320.91;5109670;27;20027;-67
2022/02/18 07:11:13;;;;;;;8.02;2.83;;;;;;;6.91;74.27;100316.59;5109636;28;20061;-68
2022/02/18 07:13:38;;;;;;;8.77;2.55;;;;;;;7.17;73.50;100327.19;5109472;28;20032;-68
2022/02/18 07:16:04;;;;;;;9.68;2.33;;;;;;;7.05;73.62;100326.25;5109641;28;20031;-68
2022/02/18 07:18:30;;;;;;;11.05;3.05;;;;;;;7.32;72.48;100328.72;5109803;28;20031;-67
2022/02/18 07:20:55;;;;;;;8.60;2.40;;;;;;;7.30;72.32;100315.50;5109338;28;20035;-67
2022/02/18 07:23:21;;;;;;;7.20;2.28;;;;;;;7.31;73.01;100343.00;5107374;28;20067;-67
2022/02/18 07:25:46;;;;;;;8.63;2.50;;;;;;;7.41;72.38;100328.03;5108972;28;20023;-68
2022/02/18 07:28:12;;;;;;;12.27;3.80;;;;;;;7.63;71.46;100323.63;5108010;28;20485;-68
2022/02/18 07:30:38;;;;;;;11.85;3.75;;;;;;;7.72;71.28;100338.09;5106014;28;20031;-67
2022/02/18 07:33:05;;;;;;;11.90;2.85;;;;;;;7.64;71.87;100341.34;5108681;28;20053;-67
2022/02/18 07:35:32;;;;;;;8.38;2.65;;;;;;;7.85;71.11;100341.53;5108620;28;20034;-69
2022/02/18 07:38:02;;;;;;;10.10;2.63;;;;;;;8.10;69.56;100342.19;5108787;28;20038;-69
2022/02/18 07:40:27;;;;;;;10.75;2.80;;;;;;;8.28;67.92;100342.63;5107383;28;20027;-68
2022/02/18 07:42:53;;;;;;;5.88;2.88;;;;;;;8.31;66.95;100340.56;5108439;28;20047;-67
2022/02/18 07:45:18;;;;;;;10.30;3.00;;;;;;;8.32;66.10;100339.59;5108471;28;20035;-68
2022/02/18 07:47:44;;;;;;;8.55;3.15;;;;;;;8.38;66.24;100341.78;5108659;28;20032;-68
2022/02/18 07:50:10;;;;;;;11.25;3.08;;;;;;;8.54;64.28;100347.63;5106770;28;20035;-68
2022/02/18 07:52:37;;;;;;;10.90;3.47;;;;;;;8.74;64.06;100348.75;5108138;28;20036;-68
2022/02/18 07:55:04;;;;;;;14.35;3.95;;;;;;;8.99;61.54;100353.81;5108499;28;20044;-68
2022/02/18 07:57:29;;;;;;;9.43;3.17;;;;;;;8.99;61.61;100356.47;5108836;28;20035;-68
2022/02/18 07:59:54;;;;;;;9.25;3.05;;;;;;;9.07;60.42;100352.19;5106904;28;20085;-69
2022/02/18 08:02:20;;;;;;;12.43;3.53;;;;;;;9.23;60.14;100365.22;5108365;28;20027;-68
2022/02/18 08:04:45;;;;;;;12.77;3.45;;;;;;;9.28;59.33;100368.34;5107410;28;20107;-68
2022/02/18 08:07:11;;;;;;;10.82;3.42;;;;;;;9.30;58.67;100358.38;5108266;28;20908;-68
2022/02/18 08:09:37;;;;;;;11.57;3.45;;;;;;;9.36;58.55;100367.72;5108276;28;20490;-69
2022/02/18 08:12:03;;;;;;;11.70;3.47;;;;;;;9.40;57.97;100353.97;5108050;28;20113;-69
2022/02/18 08:14:28;;;;;;;9.60;2.67;;;;;;;9.38;57.33;100363.94;5108618;28;20278;-69
2022/02/18 08:16:54;;;;;;;8.73;2.95;;;;;;;9.43;57.15;100361.75;5108181;28;20055;-68
2022/02/18 08:19:20;;;;;;;9.98;3.10;;;;;;;9.38;56.98;100347.88;5106515;28;20516;-67
2022/02/18 08:21:50;;;;;;;12.15;3.05;;;;;;;9.25;57.31;100334.66;5107836;28;20065;-68
2022/02/18 08:24:18;;;;;;;9.02;2.40;;;;;;;9.32;57.05;100343.00;5108124;28;20031;-68
2022/02/18 08:26:51;;;;;;;8.30;2.38;;;;;;;9.45;55.64;100358.94;5108046;28;20062;-68
2022/02/18 08:29:17;;;;;;;8.07;2.47;;;;;;;9.54;55.87;100356.34;5106724;28;20069;-68
2022/02/18 08:31:43;;;;;;;8.25;2.75;;;;;;;9.63;55.80;100344.88;5106517;28;20031;-68
2022/02/18 08:34:09;;;;;;;11.13;3.00;;;;;;;9.88;54.53;100365.94;5106709;28;20047;-69
2022/02/18 08:36:35;;;;;;;9.73;2.63;;;;;;;10.12;53.05;100363.06;5108067;28;20059;-68
2022/02/18 08:39:03;;;;;;;7.18;2.47;;;;;;;10.20;53.32;100357.88;5108160;28;20059;-69
2022/02/18 08:41:30;;;;;;;6.50;1.98;;;;;;;10.26;51.83;100349.31;5108654;28;20099;-68
2022/02/18 08:43:58;;;;;;;5.55;2.60;;;;;;;10.43;52.03;100349.56;5107565;28;20040;-68
2022/02/18 08:46:27;;;;;;;6.80;2.70;;;;;;;10.47;51.78;100363.53;5107489;28;20027;-68
2022/02/18 08:48:53;;;;;;;9.38;2.70;;;;;;;10.60;51.88;100356.97;5107797;28;20031;-69
2022/02/18 08:51:19;;;;;;;10.10;2.55;;;;;;;10.52;51.86;100353.28;5107629;28;20042;-68
2022/02/18 08:53:44;;;;;;;11.80;2.67;;;;;;;10.80;50.13;100364.13;5108088;28;20069;-67
2022/02/18 08:56:10;;;;;;;9.35;2.17;;;;;;;10.75;49.62;100369.06;5107536;28;20123;-68
2022/02/18 08:58:36;;;;;;;5.57;1.52;;;;;;;10.72;48.65;100368.47;5107690;28;20042;-67
2022/02/18 09:01:01;;;;;;;8.63;2.08;;;;;;;10.65;49.34;100372.69;5106371;28;20032;-69
2022/02/18 09:03:27;;;;;;;6.90;1.85;;;;;;;10.58;49.90;100383.06;5107892;28;20102;-68
2022/02/18 09:05:52;;;;;;;5.80;1.60;;;;;;;10.49;50.19;100378.53;5106217;28;20069;-68
2022/02/18 09:08:21;;;;;;;8.95;2.20;;;;;;;10.52;49.94;100386.31;5108036;28;20063;-68
2022/02/18 09:10:49;;;;;;;7.78;1.92;;;;;;;10.56;49.75;100389.56;5106308;28;20054;-67
2022/02/18 09:13:15;;;;;;;8.48;1.90;;;;;;;10.56;49.39;100395.78;5106172;28;20038;-67
2022/02/18 09:15:40;;;;;;;4.10;1.58;;;;;;;10.48;50.10;100400.94;5107247;28;20031;-67
2022/02/18 09:18:06;;;;;;;4.65;1.90;;;;;;;10.44;50.33;100406.69;5111097;28;20080;-69
2022/02/18 09:20:33;;;;;;;6.95;2.53;;;;;;;10.44;50.35;100406.69;5111399;28;20406;-68
2022/02/18 09:22:59;;;;;;;6.38;2.35;;;;;;;10.29;50.50;100400.81;5111456;28;20360;-68
2022/02/18 09:25:24;;;;;;;8.27;2.80;;;;;;;10.23;50.94;100416.59;5109712;28;20028;-68
2022/02/18 09:27:50;;;;;;;9.32;3.10;;;;;;;10.10;51.23;100400.72;5111244;28;20084;-68
2022/02/18 09:30:15;;;;;;;11.85;2.80;;;;;;;10.09;51.11;100395.47;5111102;28;20080;-69
2022/02/18 09:32:41;;;;;;;10.23;2.47;;;;;;;10.08;51.58;100418.72;5110926;28;20031;-67
2022/02/18 09:35:07;;;;;;;6.25;2.72;;;;;;;10.20;51.59;100422.22;5110788;28;20044;-69
2022/02/18 09:37:34;;;;;;;7.78;2.17;;;;;;;10.19;51.50;100429.38;5111350;28;20471;-68
2022/02/18 09:40:00;;;;;;;10.18;2.45;;;;;;;10.15;51.53;100429.78;5110688;28;20032;-69
2022/02/18 09:42:27;;;;;;;10.20;2.42;;;;;;;10.02;51.77;100415.66;5112551;28;20027;-75
2022/02/18 09:44:53;;;;;;;11.55;2.58;;;;;;;9.99;52.46;100440.06;5113634;27;20022;-77
2022/02/18 09:47:18;;;;;;;11.38;2.58;;;;;;;9.93;52.71;100427.19;5112833;28;20389;-77
2022/02/18 09:49:44;;;;;;;15.02;3.40;;;;;;;9.87;53.07;100431.19;5112862;28;20023;-76
2022/02/18 09:52:11;;;;;;;7.68;2.97;;;;;;;10.04;53.46;100435.16;5112465;28;20027;-77
2022/02/18 09:54:37;;;;;;;11.52;3.90;;;;;;;10.02;53.15;100432.59;5113226;28;20526;-77
2022/02/18 09:57:03;;;;;;;11.68;4.13;;;;;;;10.06;53.74;100433.22;5113289;28;20107;-77
2022/02/18 09:59:29;;;;;;;12.20;3.67;;;;;;;9.95;54.34;100442.13;5112412;28;20035;-77
2022/02/18 10:01:55;;;;;;;10.48;4.30;;;;;;;10.05;54.38;100452.94;5112801;28;20077;-77
2022/02/18 10:04:21;;;;;;;9.32;3.63;;;;;;;9.94;54.77;100439.59;5112330;28;20490;-78
2022/02/18 10:06:46;;;;;;;11.48;3.72;;;;;;;9.88;55.32;100449.00;5112477;28;20023;-77
2022/02/18 10:09:12;;;;;;;14.95;3.85;;;;;;;9.99;55.46;100434.72;5112083;28;20073;-77
2022/02/18 10:11:52;;;;;;;10.23;3.42;;;;;;;9.99;55.88;100445.44;5112340;28;20030;-76
2022/02/18 10:14:18;;;;;;;12.27;4.38;;;;;;;10.10;56.00;100442.72;5112971;28;20027;-77
2022/02/18 10:16:44;;;;;;;12.88;4.05;;;;;;;10.14;56.04;100436.13;5113073;28;20524;-76
2022/02/18 10:19:10;;;;;;;12.90;4.00;;;;;;;10.14;56.15;100436.13;5112404;28;20081;-77
2022/02/18 10:21:38;;;;;;;10.30;3.58;;;;;;;10.19;55.94;100426.72;5112757;28;20019;-77
2022/02/18 10:24:14;;;;;;;14.82;4.28;;;;;;;10.40;55.82;100438.31;5111691;28;20023;-78
2022/02/18 10:26:41;;;;;;;10.23;3.58;;;;;;;10.39;55.43;100436.63;5110879;28;20051;-78
2022/02/18 10:29:08;;;;;;;9.38;3.05;;;;;;;10.42;55.34;100428.28;5110494;28;20023;-77
2022/02/18 10:31:35;;;;;;;11.48;3.58;;;;;;;10.48;54.77;100414.34;5111946;28;20031;-80
2022/02/18 10:34:03;;;;;;;9.25;3.00;;;;;;;10.43;55.22;100407.69;5111720;28;20043;-77
2022/02/18 10:36:45;;;;;;;8.18;2.80;;;;;;;10.62;53.73;100397.06;5111484;28;20072;-77
2022/02/18 10:39:33;;;;;;;9.15;2.78;;;;;;;10.77;53.44;100398.44;5110831;28;20032;-78
2022/02/18 10:42:00;;;;;;;7.93;2.38;;;;;;;10.81;52.17;100386.44;5109062;28;20034;-77
2022/02/18 10:44:31;;;;;;;10.43;2.55;;;;;;;10.83;53.57;100393.38;5111281;28;20044;-77
2022/02/18 10:46:57;;;;;;;9.00;3.00;;;;;;;10.94;52.96;100390.59;5111526;28;20024;-77
2022/02/18 10:49:32;;;;;;;11.77;2.30;;;;;;;11.08;51.92;100395.59;5109732;28;20502;-77
2022/02/18 10:52:03;;;;;;;6.30;2.20;;;;;;;11.19;51.55;100378.53;5109549;28;20027;-78
2022/02/18 10:54:31;;;;;;;7.65;2.72;;;;;;;11.22;51.36;100373.72;5110983;28;20027;-78
2022/02/18 10:57:11;;;;;;;8.52;2.30;;;;;;;11.43;50.71;100368.28;5111027;28;20024;-78
2022/02/18 10:59:37;;;;;;;10.10;2.50;;;;;;;11.60;49.74;100359.53;5110950;28;20030;-78
2022/02/18 11:02:02;;;;;;;5.68;2.10;;;;;;;11.95;48.91;100367.06;5110607;28;20024;-78
2022/02/18 11:04:28;;;;;;;8.07;2.20;;;;;;;11.98;48.42;100370.31;5111130;28;20044;-77
2022/02/18 11:07:10;;;;;;;10.98;2.35;;;;;;;12.14;48.60;100367.91;5108217;28;20093;-77
2022/02/18 11:09:36;;;;;;;4.55;1.65;;;;;;;12.32;47.96;100374.22;5109688;28;20028;-77
2022/02/18 11:12:07;;;;;;;8.90;2.00;;;;;;;12.27;47.96;100360.38;5110536;28;20073;-77
2022/02/18 11:14:33;;;;;;;8.60;1.75;;;;;;;12.32;47.63;100354.56;5110278;28;20061;-77
2022/02/18 11:16:59;;;;;;;8.77;2.50;;;;;;;12.23;48.13;100360.81;5110611;28;20051;-77
2022/02/18 11:19:24;;;;;;;7.82;2.33;;;;;;;12.11;48.97;100359.25;5108997;28;20027;-69
2022/02/18 11:21:50;;;;;;;9.20;3.10;;;;;;;12.06;48.26;100365.06;5108989;28;20709;-69
2022/02/18 11:24:17;;;;;;;6.47;1.80;;;;;;;12.09;47.63;100364.78;5109002;28;20070;-69
2022/02/18 11:26:44;;;;;;;13.98;2.47;;;;;;;12.05;48.39;100367.88;5108730;28;20064;-69